Time;durP1;ratioP1;P1;durP2;ratioP2;P2;SDS_P1;SDS_P2;PMS_P1;PMS_P2;Temp;Humidity;BMP_temperature;BMP_pressure;BME280_temperature;BME280_humidity;BME280_pressure;Samples;Min_cycle;Max_cycle;Signal;HPM_P1;HPM_P2
2022/09/15 00:00:52;;;;;;;2.67;1.00;;;12.20;99.90;;;;;;5075648;28;20047;-69
2022/09/15 00:03:19;;;;;;;1.98;0.90;;;12.20;99.90;;;;;;5075575;28;20041;-70
2022/09/15 00:05:45;;;;;;;1.63;1.02;;;12.20;99.90;;;;;;5075209;28;20055;-70
2022/09/15 00:08:12;;;;;;;3.35;1.15;;;12.20;99.90;;;;;;5075854;28;20514;-70
2022/09/15 00:10:47;;;;;;;3.28;1.10;;;12.20;99.90;;;;;;5075474;28;20473;-70
2022/09/15 00:13:13;;;;;;;3.67;1.27;;;12.20;99.90;;;;;;5075465;28;20040;-70
2022/09/15 00:15:39;;;;;;;1.80;1.00;;;12.20;99.90;;;;;;5075243;28;20105;-70
2022/09/15 00:18:06;;;;;;;1.88;1.23;;;12.10;99.90;;;;;;5075306;28;20040;-69
2022/09/15 00:20:31;;;;;;;2.05;1.20;;;12.10;99.90;;;;;;5075263;28;20474;-69
2022/09/15 00:22:57;;;;;;;2.88;1.23;;;12.00;99.90;;;;;;5074102;28;20127;-69
2022/09/15 00:25:23;;;;;;;2.58;1.45;;;12.00;99.90;;;;;;5075178;28;20231;-70
2022/09/15 00:27:49;;;;;;;4.63;1.58;;;12.00;99.90;;;;;;5074975;28;20032;-70
2022/09/15 00:30:14;;;;;;;3.08;1.45;;;12.00;99.90;;;;;;5075551;28;20093;-70
2022/09/15 00:32:40;;;;;;;2.55;1.20;;;12.00;99.90;;;;;;5075009;28;20425;-70
2022/09/15 00:35:06;;;;;;;3.40;1.63;;;12.00;99.90;;;;;;5075289;28;20130;-70
2022/09/15 00:37:32;;;;;;;3.42;1.38;;;12.00;99.90;;;;;;5074874;28;20089;-70
2022/09/15 00:39:58;;;;;;;2.05;1.30;;;12.00;99.90;;;;;;5074853;28;20140;-69
2022/09/15 00:42:24;;;;;;;1.88;1.10;;;12.00;99.90;;;;;;5074266;28;20123;-70
2022/09/15 00:45:02;;;;;;;2.25;1.42;;;12.00;99.90;;;;;;5074551;28;20544;-69
2022/09/15 00:47:32;;;;;;;2.00;1.30;;;12.00;99.90;;;;;;5074557;28;20037;-70
2022/09/15 00:50:12;;;;;;;2.50;1.67;;;11.90;99.90;;;;;;5075713;28;20119;-69
2022/09/15 00:52:48;;;;;;;3.85;1.55;;;12.00;99.90;;;;;;5074597;28;20047;-69
2022/09/15 00:55:21;;;;;;;3.20;1.77;;;12.00;99.90;;;;;;5073295;28;20055;-69
2022/09/15 00:57:49;;;;;;;2.70;1.88;;;12.00;99.90;;;;;;5074518;28;20032;-69
2022/09/15 01:00:18;;;;;;;3.25;1.98;;;12.10;99.90;;;;;;5073107;28;20091;-69
2022/09/15 01:02:46;;;;;;;3.35;2.10;;;12.20;99.90;;;;;;5074084;28;20481;-69
2022/09/15 01:05:14;;;;;;;3.53;2.13;;;12.30;99.90;;;;;;5074551;28;20095;-70
2022/09/15 01:08:02;;;;;;;2.88;2.10;;;12.40;99.90;;;;;;5074147;28;20044;-70
2022/09/15 01:10:35;;;;;;;2.95;2.00;;;12.50;99.90;;;;;;5074345;28;20056;-69
2022/09/15 01:13:04;;;;;;;3.38;2.22;;;12.60;99.90;;;;;;5074166;28;20045;-70
2022/09/15 01:15:53;;;;;;;4.10;2.28;;;12.60;99.90;;;;;;5074143;28;20044;-70
2022/09/15 01:18:43;;;;;;;5.13;2.63;;;12.70;99.90;;;;;;5063727;28;20481;-69
2022/09/15 01:21:17;;;;;;;4.20;2.72;;;12.80;99.90;;;;;;5074739;28;20048;-69
2022/09/15 01:24:14;;;;;;;3.97;2.50;;;12.80;99.90;;;;;;5074310;28;20182;-70
2022/09/15 01:26:43;;;;;;;3.88;2.50;;;12.80;99.90;;;;;;5074974;28;20036;-70
2022/09/15 01:29:42;;;;;;;3.42;2.30;;;12.80;99.90;;;;;;5073728;28;20040;-70
2022/09/15 01:35:21;;;;;;;3.15;2.38;;;12.90;99.90;;;;;;5074425;28;20137;-69
2022/09/15 01:37:58;;;;;;;4.35;2.40;;;12.90;99.90;;;;;;5072668;28;20051;-69
2022/09/15 01:40:30;;;;;;;3.85;2.35;;;12.90;99.90;;;;;;5073404;28;20507;-69
2022/09/15 01:42:58;;;;;;;3.53;2.00;;;13.00;99.90;;;;;;5072548;28;20076;-69
2022/09/15 01:45:29;;;;;;;3.35;2.00;;;13.00;99.90;;;;;;5074415;28;20052;-69
2022/09/15 01:47:58;;;;;;;2.67;1.70;;;13.00;99.90;;;;;;5073590;28;20035;-69
2022/09/15 01:50:31;;;;;;;2.60;1.38;;;13.00;99.90;;;;;;5073577;28;20088;-69
2022/09/15 01:53:02;;;;;;;3.03;1.13;;;13.00;99.90;;;;;;5073525;28;20127;-69
2022/09/15 01:55:45;;;;;;;2.75;1.20;;;13.10;99.90;;;;;;5073224;28;20070;-69
2022/09/15 01:58:11;;;;;;;2.63;1.25;;;13.20;99.90;;;;;;5074077;28;20040;-70
2022/09/15 02:00:42;;;;;;;3.53;1.48;;;13.10;99.90;;;;;;5073951;28;20067;-70
2022/09/15 02:03:43;;;;;;;2.35;1.10;;;13.10;99.90;;;;;;5073534;28;20047;-69
2022/09/15 02:06:18;;;;;;;3.17;1.30;;;13.20;99.90;;;;;;5071786;28;20136;-70
2022/09/15 02:08:51;;;;;;;3.42;1.30;;;13.20;99.90;;;;;;5073403;28;20052;-70
2022/09/15 02:11:24;;;;;;;3.20;1.20;;;13.20;99.90;;;;;;5073388;28;20123;-70
2022/09/15 02:13:55;;;;;;;3.50;1.55;;;13.20;99.90;;;;;;5073298;28;20102;-70
2022/09/15 02:16:24;;;;;;;3.70;1.15;;;13.20;99.90;;;;;;5073259;28;20043;-70
2022/09/15 02:19:14;;;;;;;3.03;1.20;;;13.20;99.90;;;;;;5073243;28;20040;-70
2022/09/15 02:21:52;;;;;;;4.38;1.10;;;13.20;99.90;;;;;;5072947;28;20154;-70
2022/09/15 02:24:28;;;;;;;3.30;1.15;;;13.20;99.90;;;;;;5073264;28;20040;-70
2022/09/15 02:26:55;;;;;;;3.15;1.10;;;13.20;99.90;;;;;;5073662;28;20127;-70
2022/09/15 02:29:24;;;;;;;2.67;1.10;;;13.20;99.90;;;;;;5073963;28;20037;-70
2022/09/15 02:31:54;;;;;;;3.50;1.00;;;13.20;99.90;;;;;;5071866;28;20036;-70
2022/09/15 02:34:24;;;;;;;2.67;1.02;;;13.20;99.90;;;;;;5072342;28;20457;-70
2022/09/15 02:36:52;;;;;;;3.45;1.25;;;13.20;99.90;;;;;;5072311;28;20080;-70
2022/09/15 02:39:22;;;;;;;2.70;1.40;;;13.20;99.90;;;;;;5073001;28;20114;-70
2022/09/15 02:41:48;;;;;;;3.58;1.33;;;13.20;99.90;;;;;;5073292;28;20052;-70
2022/09/15 02:44:14;;;;;;;3.30;1.15;;;13.10;99.90;;;;;;5073013;28;20497;-70
2022/09/15 02:46:40;;;;;;;3.15;1.10;;;13.20;99.90;;;;;;5072963;28;20140;-69
2022/09/15 02:49:06;;;;;;;2.80;1.20;;;13.20;99.90;;;;;;5073006;28;20045;-70
2022/09/15 02:51:32;;;;;;;2.85;1.10;;;13.20;99.90;;;;;;5073011;28;20484;-69
2022/09/15 02:53:58;;;;;;;2.35;1.08;;;13.20;99.90;;;;;;5073423;28;20048;-70
2022/09/15 02:56:24;;;;;;;4.25;1.10;;;13.20;99.90;;;;;;5055374;28;20377;-70
2022/09/15 02:58:49;;;;;;;3.38;1.23;;;13.20;99.90;;;;;;5072875;28;20094;-70
2022/09/15 03:01:16;;;;;;;3.38;1.17;;;13.20;99.90;;;;;;5072847;28;20040;-70
2022/09/15 03:03:43;;;;;;;2.47;0.93;;;13.30;99.90;;;;;;5072900;28;20166;-69
2022/09/15 03:06:16;;;;;;;3.97;1.10;;;13.30;99.90;;;;;;5073501;28;20052;-70
2022/09/15 03:08:50;;;;;;;3.13;1.13;;;13.30;99.90;;;;;;5076698;28;20040;-70
2022/09/15 03:11:18;;;;;;;1.90;0.90;;;13.40;99.90;;;;;;5076568;28;20036;-70
2022/09/15 03:13:44;;;;;;;2.88;0.90;;;13.40;99.90;;;;;;5076478;28;20493;-70
2022/09/15 03:16:11;;;;;;;3.47;1.10;;;13.40;99.90;;;;;;5075245;28;20115;-70
2022/09/15 03:18:37;;;;;;;5.75;1.10;;;13.50;99.90;;;;;;5076397;28;20036;-70
2022/09/15 03:21:05;;;;;;;3.42;1.00;;;13.50;99.90;;;;;;5076361;28;20048;-69
2022/09/15 03:23:31;;;;;;;3.25;1.17;;;13.50;99.90;;;;;;5076345;28;20094;-69
2022/09/15 03:25:58;;;;;;;1.58;0.88;;;13.50;99.90;;;;;;5076746;28;20373;-70
2022/09/15 03:28:25;;;;;;;3.67;1.20;;;13.40;99.90;;;;;;5076201;28;20045;-69
2022/09/15 03:30:51;;;;;;;2.83;0.98;;;13.40;99.90;;;;;;5076238;28;20469;-70
2022/09/15 03:33:17;;;;;;;4.10;1.20;;;13.40;99.90;;;;;;5076578;28;20049;-70
2022/09/15 03:35:48;;;;;;;2.83;1.20;;;13.40;99.90;;;;;;5074825;28;20049;-70
2022/09/15 03:38:14;;;;;;;3.13;0.90;;;13.40;99.90;;;;;;5075947;28;20050;-70
2022/09/15 03:40:41;;;;;;;1.92;0.95;;;13.40;99.90;;;;;;5076029;28;20493;-70
2022/09/15 03:43:08;;;;;;;2.33;1.00;;;13.40;99.90;;;;;;5076200;28;20365;-70
2022/09/15 03:45:36;;;;;;;3.05;0.88;;;13.40;99.90;;;;;;5075923;28;20051;-70
2022/09/15 03:48:04;;;;;;;2.53;0.77;;;13.40;99.90;;;;;;5074589;28;20037;-70
2022/09/15 03:50:30;;;;;;;2.90;0.90;;;13.40;99.90;;;;;;5076659;28;20040;-70
2022/09/15 03:53:01;;;;;;;3.58;1.20;;;13.40;99.90;;;;;;5075855;28;20044;-70
2022/09/15 03:55:27;;;;;;;4.43;1.50;;;13.40;99.90;;;;;;5075818;28;20052;-70
2022/09/15 03:57:54;;;;;;;4.35;1.40;;;13.40;99.90;;;;;;5075897;28;20511;-70
2022/09/15 04:00:20;;;;;;;3.03;0.88;;;13.40;99.90;;;;;;5075625;28;20040;-70
2022/09/15 04:02:46;;;;;;;4.30;1.15;;;13.40;99.90;;;;;;5075557;28;20377;-70
2022/09/15 04:05:12;;;;;;;3.53;0.88;;;13.40;99.90;;;;;;5075335;28;20048;-70
2022/09/15 04:07:41;;;;;;;3.50;0.80;;;13.40;99.90;;;;;;5075371;28;20040;-70
2022/09/15 04:10:08;;;;;;;2.58;1.00;;;13.40;99.90;;;;;;5075732;28;20047;-70
2022/09/15 04:12:35;;;;;;;2.90;0.77;;;13.40;99.90;;;;;;5074227;28;20047;-70
2022/09/15 04:15:01;;;;;;;2.80;0.80;;;13.40;99.90;;;;;;5075438;28;20052;-70
2022/09/15 04:17:27;;;;;;;2.97;0.90;;;13.40;99.90;;;;;;5073612;28;20098;-70
2022/09/15 04:19:53;;;;;;;2.25;0.82;;;13.30;99.90;;;;;;5074208;28;20098;-70
2022/09/15 04:22:19;;;;;;;2.85;0.90;;;13.30;99.90;;;;;;5074249;28;20047;-70
2022/09/15 04:24:46;;;;;;;2.65;0.80;;;13.20;99.90;;;;;;5074992;28;20131;-70
2022/09/15 04:27:13;;;;;;;3.40;0.90;;;13.20;99.90;;;;;;5075101;28;20032;-70
2022/09/15 04:29:39;;;;;;;3.72;1.20;;;13.20;99.90;;;;;;5074115;28;20045;-71
2022/09/15 04:32:05;;;;;;;2.65;1.27;;;13.10;99.90;;;;;;5075065;28;20040;-70
2022/09/15 04:34:30;;;;;;;3.15;0.98;;;13.00;99.90;;;;;;5075010;28;20032;-70
2022/09/15 04:36:56;;;;;;;3.90;0.88;;;13.00;99.90;;;;;;5075159;28;20032;-70
2022/09/15 04:39:22;;;;;;;2.40;1.05;;;13.00;99.90;;;;;;5075382;28;20037;-70
2022/09/15 04:41:47;;;;;;;4.10;0.82;;;12.90;99.90;;;;;;5074116;28;20468;-70
2022/09/15 04:44:13;;;;;;;4.50;1.42;;;12.90;99.90;;;;;;5073577;28;20492;-70
2022/09/15 04:46:39;;;;;;;3.85;0.90;;;12.90;99.90;;;;;;5074934;28;20093;-70
2022/09/15 04:49:05;;;;;;;2.47;0.80;;;12.90;99.90;;;;;;5074764;28;20083;-70
2022/09/15 04:51:30;;;;;;;3.25;1.00;;;12.90;99.90;;;;;;5075427;28;20036;-70
2022/09/15 04:53:57;;;;;;;2.33;0.80;;;12.80;99.90;;;;;;5074292;28;20041;-70
2022/09/15 04:56:24;;;;;;;2.25;0.90;;;12.80;99.90;;;;;;5075122;28;20044;-69
2022/09/15 04:58:52;;;;;;;3.10;1.00;;;12.80;99.90;;;;;;5074507;28;20123;-70
2022/09/15 05:01:21;;;;;;;3.33;1.00;;;12.80;99.90;;;;;;5074445;28;20036;-70
2022/09/15 05:03:47;;;;;;;3.30;0.82;;;12.80;99.90;;;;;;5074077;28;20067;-70
2022/09/15 05:06:17;;;;;;;3.78;1.08;;;12.80;99.90;;;;;;5074848;28;20052;-70
2022/09/15 05:08:46;;;;;;;2.42;0.98;;;12.80;99.90;;;;;;5057355;28;20087;-70
2022/09/15 05:11:12;;;;;;;3.90;0.98;;;12.80;99.90;;;;;;5073904;28;20055;-70
2022/09/15 05:13:39;;;;;;;3.65;0.80;;;12.70;99.90;;;;;;5074291;28;20036;-70
2022/09/15 05:16:13;;;;;;;3.63;0.77;;;12.70;99.90;;;;;;5074095;28;20044;-70
2022/09/15 05:18:40;;;;;;;2.50;1.00;;;12.60;99.90;;;;;;5076326;28;20047;-69
2022/09/15 05:21:08;;;;;;;2.00;0.88;;;12.60;99.90;;;;;;5076354;28;20048;-69
2022/09/15 05:23:35;;;;;;;4.18;1.15;;;12.50;99.90;;;;;;5074232;28;20055;-69
2022/09/15 05:26:04;;;;;;;2.38;0.85;;;12.50;99.90;;;;;;5073925;28;20097;-70
2022/09/15 05:28:32;;;;;;;4.55;0.90;;;12.50;99.90;;;;;;5073902;28;20048;-69
2022/09/15 05:30:57;;;;;;;3.80;1.20;;;12.60;99.90;;;;;;5072968;28;20127;-70
2022/09/15 05:33:23;;;;;;;2.72;1.10;;;12.60;99.90;;;;;;5074136;28;20131;-69
2022/09/15 05:35:57;;;;;;;3.30;1.00;;;12.60;99.90;;;;;;5074216;28;20369;-70
2022/09/15 05:38:24;;;;;;;3.55;0.90;;;12.70;99.90;;;;;;5073814;28;20087;-70
2022/09/15 05:40:49;;;;;;;3.95;1.05;;;12.70;99.90;;;;;;5072773;28;20472;-69
2022/09/15 05:43:16;;;;;;;4.13;0.85;;;12.80;99.90;;;;;;5073697;28;20037;-69
2022/09/15 05:45:42;;;;;;;3.33;1.00;;;12.80;99.90;;;;;;5074251;28;20047;-69
2022/09/15 05:48:10;;;;;;;4.43;1.00;;;12.90;99.90;;;;;;5073566;28;20037;-69
2022/09/15 05:50:36;;;;;;;3.58;0.90;;;12.90;99.90;;;;;;5074170;28;20142;-69
2022/09/15 05:53:02;;;;;;;2.17;0.98;;;12.90;99.90;;;;;;5073590;28;20054;-69
2022/09/15 05:55:28;;;;;;;3.55;1.13;;;12.90;99.90;;;;;;5073543;28;20040;-69
2022/09/15 05:57:54;;;;;;;3.10;0.93;;;13.00;99.90;;;;;;5072596;28;20045;-69
2022/09/15 06:00:20;;;;;;;2.28;0.85;;;13.00;99.90;;;;;;5073216;28;20047;-69
2022/09/15 06:02:45;;;;;;;3.58;0.80;;;13.00;99.90;;;;;;5073256;28;20044;-69
2022/09/15 06:05:12;;;;;;;3.80;0.90;;;13.10;99.90;;;;;;5073592;28;20528;-69
2022/09/15 06:07:38;;;;;;;3.97;0.98;;;13.10;99.90;;;;;;5073214;28;20044;-70
2022/09/15 06:10:04;;;;;;;3.85;0.80;;;13.10;99.90;;;;;;5072626;28;20093;-69
2022/09/15 06:12:30;;;;;;;2.75;0.70;;;13.10;99.90;;;;;;5074172;28;20044;-69
2022/09/15 06:14:55;;;;;;;2.90;0.88;;;13.10;99.90;;;;;;5073721;28;20041;-69
2022/09/15 06:17:24;;;;;;;2.05;0.70;;;13.20;99.90;;;;;;5073339;28;20033;-69
2022/09/15 06:19:50;;;;;;;2.67;1.05;;;13.20;99.90;;;;;;5073860;28;20044;-66
2022/09/15 06:22:15;;;;;;;2.25;0.60;;;13.20;99.90;;;;;;5073281;28;20044;-65
2022/09/15 06:24:41;;;;;;;3.88;0.90;;;13.40;99.90;;;;;;5073265;28;20059;-65
2022/09/15 06:27:07;;;;;;;2.55;0.80;;;13.40;99.90;;;;;;5073138;28;20047;-65
2022/09/15 06:29:32;;;;;;;3.47;0.80;;;13.50;99.90;;;;;;5071965;28;20076;-65
2022/09/15 06:32:01;;;;;;;1.52;0.75;;;13.60;99.90;;;;;;5073962;28;20052;-65
2022/09/15 06:34:33;;;;;;;2.85;0.82;;;13.60;99.90;;;;;;5071958;28;20119;-65
2022/09/15 06:36:59;;;;;;;3.30;1.15;;;13.70;99.90;;;;;;5072781;28;20041;-65
2022/09/15 06:39:25;;;;;;;2.75;0.70;;;13.80;99.90;;;;;;5071803;28;20051;-65
2022/09/15 06:41:51;;;;;;;2.60;1.20;;;13.70;99.90;;;;;;5074365;28;20036;-65
2022/09/15 06:44:20;;;;;;;2.53;0.70;;;13.70;99.90;;;;;;5077128;28;20077;-65
2022/09/15 06:46:46;;;;;;;2.72;0.90;;;13.80;99.90;;;;;;5076954;28;20043;-65
2022/09/15 06:49:12;;;;;;;4.28;1.00;;;13.80;99.90;;;;;;5077062;28;20041;-65
2022/09/15 06:51:37;;;;;;;3.03;0.70;;;13.80;99.90;;;;;;5076892;28;20036;-65
2022/09/15 06:54:04;;;;;;;5.03;0.77;;;13.80;99.90;;;;;;5075664;28;20578;-65
2022/09/15 06:56:31;;;;;;;3.83;1.25;;;13.80;99.90;;;;;;5076501;28;20493;-65
2022/09/15 06:58:58;;;;;;;2.28;0.60;;;13.80;99.90;;;;;;5076791;28;20370;-65
2022/09/15 07:01:30;;;;;;;3.08;0.80;;;13.80;99.90;;;;;;5076708;28;20417;-65
2022/09/15 07:03:57;;;;;;;2.15;0.75;;;13.80;99.90;;;;;;5075714;28;20055;-65
2022/09/15 07:06:26;;;;;;;4.38;1.15;;;13.80;99.90;;;;;;5077099;28;20044;-65
2022/09/15 07:08:52;;;;;;;3.70;0.98;;;13.80;99.90;;;;;;5076782;28;20461;-65
2022/09/15 07:11:19;;;;;;;1.70;0.75;;;14.00;99.90;;;;;;5076954;28;20136;-65
2022/09/15 07:13:47;;;;;;;2.85;0.95;;;14.10;99.90;;;;;;5076642;28;20495;-65
2022/09/15 07:16:13;;;;;;;4.93;1.15;;;14.20;99.90;;;;;;5076403;28;20127;-65
2022/09/15 07:18:39;;;;;;;3.25;0.95;;;14.30;99.90;;;;;;5076260;28;20178;-65
2022/09/15 07:21:07;;;;;;;2.88;0.80;;;14.30;99.90;;;;;;5074191;28;20049;-64
2022/09/15 07:23:34;;;;;;;2.92;0.88;;;14.40;99.90;;;;;;5076122;28;20048;-65
2022/09/15 07:26:28;;;;;;;2.65;0.82;;;14.40;99.90;;;;;;5076031;28;20114;-65
2022/09/15 07:29:01;;;;;;;2.40;0.85;;;14.50;99.90;;;;;;5074744;28;20064;-65
2022/09/15 07:31:30;;;;;;;2.72;0.80;;;14.60;99.90;;;;;;5076568;28;20086;-66
2022/09/15 07:33:57;;;;;;;4.20;1.10;;;14.70;99.90;;;;;;5074767;28;20393;-64
2022/09/15 07:36:24;;;;;;;2.50;0.85;;;14.70;99.90;;;;;;5076631;28;20148;-64
2022/09/15 07:38:50;;;;;;;1.95;0.73;;;14.80;99.90;;;;;;5075470;28;20511;-64
2022/09/15 07:41:18;;;;;;;3.95;0.95;;;14.90;99.90;;;;;;5075819;28;20048;-64
2022/09/15 07:43:49;;;;;;;3.28;0.85;;;14.90;99.90;;;;;;5075760;28;20051;-64
2022/09/15 07:46:16;;;;;;;5.22;0.95;;;14.90;99.90;;;;;;5075737;28;20044;-64
2022/09/15 07:48:50;;;;;;;2.50;0.73;;;15.00;99.90;;;;;;5075811;28;20063;-64
2022/09/15 07:51:16;;;;;;;2.38;0.55;;;15.10;99.90;;;;;;5076492;28;20075;-65
2022/09/15 07:53:44;;;;;;;2.10;0.90;;;15.10;99.90;;;;;;5075144;28;20095;-65
2022/09/15 07:56:10;;;;;;;2.65;0.95;;;15.20;99.90;;;;;;5075671;28;20049;-65
2022/09/15 07:58:36;;;;;;;2.97;0.77;;;15.20;99.90;;;;;;5075573;28;20051;-65
2022/09/15 08:01:03;;;;;;;3.22;0.60;;;15.20;99.90;;;;;;5076405;28;20458;-65
2022/09/15 08:03:29;;;;;;;1.92;0.63;;;15.30;99.90;;;;;;5075501;28;20055;-65
2022/09/15 08:06:00;;;;;;;3.10;0.77;;;15.40;99.90;;;;;;5075274;28;20062;-65
2022/09/15 08:08:26;;;;;;;2.15;0.77;;;15.40;99.90;;;;;;5057384;28;20083;-65
2022/09/15 08:10:52;;;;;;;2.88;0.70;;;15.50;99.90;;;;;;5074316;28;20048;-65
2022/09/15 08:13:18;;;;;;;2.20;0.70;;;15.50;99.90;;;;;;5075360;28;20051;-64
2022/09/15 08:15:45;;;;;;;2.55;0.77;;;15.60;99.90;;;;;;5075309;28;20069;-65
2022/09/15 08:18:11;;;;;;;1.90;0.70;;;15.60;99.90;;;;;;5075848;28;20048;-66
2022/09/15 08:20:43;;;;;;;1.50;0.60;;;15.70;99.90;;;;;;5075687;28;20322;-65
2022/09/15 08:23:10;;;;;;;3.80;0.80;;;15.80;99.90;;;;;;5075127;28;20420;-65
2022/09/15 08:25:38;;;;;;;2.38;0.55;;;15.90;99.90;;;;;;5075142;28;20048;-65
2022/09/15 08:28:05;;;;;;;1.70;0.52;;;16.00;99.90;;;;;;5074939;28;20051;-65
2022/09/15 08:30:31;;;;;;;1.77;0.60;;;16.00;99.90;;;;;;5075762;28;20041;-65
2022/09/15 08:32:56;;;;;;;1.90;0.50;;;16.10;99.90;;;;;;5074959;28;20097;-65
2022/09/15 08:35:22;;;;;;;4.35;0.70;;;16.30;99.90;;;;;;5074889;28;20131;-65
2022/09/15 08:37:48;;;;;;;3.47;0.90;;;16.30;99.90;;;;;;5073696;28;20119;-65
2022/09/15 08:40:21;;;;;;;2.90;0.60;;;16.20;99.90;;;;;;5074093;28;20056;-65
2022/09/15 08:42:51;;;;;;;1.17;0.50;;;16.20;99.90;;;;;;5073520;28;20048;-65
2022/09/15 08:45:20;;;;;;;2.78;0.70;;;16.10;99.90;;;;;;5075245;28;20048;-65
2022/09/15 08:47:50;;;;;;;1.65;0.63;;;16.00;99.90;;;;;;5074534;28;20083;-65
2022/09/15 08:50:46;;;;;;;3.10;1.02;;;16.00;99.90;;;;;;5074473;28;20052;-65
2022/09/15 08:53:24;;;;;;;3.42;0.65;;;16.30;99.90;;;;;;5074593;28;20055;-65
2022/09/15 08:55:53;;;;;;;2.70;0.70;;;16.40;99.90;;;;;;5075540;28;20169;-65
2022/09/15 08:58:22;;;;;;;1.23;0.57;;;16.60;99.90;;;;;;5074391;28;20037;-65
2022/09/15 09:00:55;;;;;;;2.47;0.77;;;16.70;99.90;;;;;;5075195;28;20426;-65
2022/09/15 09:03:32;;;;;;;4.60;0.70;;;16.80;99.90;;;;;;5074112;28;20045;-65
2022/09/15 09:06:20;;;;;;;2.88;0.90;;;16.90;99.90;;;;;;5073674;28;20053;-65
2022/09/15 09:09:05;;;;;;;2.35;0.68;;;17.00;99.90;;;;;;5073026;28;20060;-65
2022/09/15 09:11:32;;;;;;;2.88;0.70;;;17.20;99.90;;;;;;5072943;28;20090;-65
2022/09/15 09:14:33;;;;;;;1.48;0.60;;;17.20;99.90;;;;;;5073800;28;20057;-64
2022/09/15 09:17:06;;;;;;;1.67;0.57;;;17.30;99.90;;;;;;5074034;28;20079;-65
2022/09/15 09:20:07;;;;;;;2.40;0.70;;;17.40;99.90;;;;;;5074500;28;20052;-65
2022/09/15 09:22:37;;;;;;;2.03;0.52;;;17.40;99.90;;;;;;5052604;28;20056;-65
2022/09/15 09:25:04;;;;;;;1.75;0.82;;;17.40;99.90;;;;;;5073837;28;20036;-65
2022/09/15 09:27:33;;;;;;;4.50;1.08;;;17.40;99.90;;;;;;5073709;28;20128;-66
2022/09/15 09:30:06;;;;;;;2.00;0.60;;;17.50;99.90;;;;;;5073805;28;20131;-65
2022/09/15 09:32:42;;;;;;;1.83;0.65;;;17.60;99.90;;;;;;5073989;28;20094;-65
2022/09/15 09:35:41;;;;;;;2.90;0.60;;;17.70;99.90;;;;;;5074085;28;20131;-65
2022/09/15 09:38:09;;;;;;;3.10;1.20;;;17.80;99.90;;;;;;5074183;28;20145;-65
2022/09/15 09:40:35;;;;;;;2.33;0.60;;;17.80;99.90;;;;;;5073603;28;20047;-65
2022/09/15 09:43:01;;;;;;;2.05;0.70;;;17.80;99.90;;;;;;5074015;28;20045;-65
2022/09/15 09:45:27;;;;;;;2.33;0.63;;;17.80;99.90;;;;;;5073467;28;20128;-65
2022/09/15 09:47:57;;;;;;;2.33;0.88;;;17.70;99.90;;;;;;5073326;28;20053;-66
2022/09/15 09:50:40;;;;;;;2.65;0.68;;;17.70;99.90;;;;;;5073034;28;20052;-66
2022/09/15 09:53:29;;;;;;;2.67;0.60;;;17.70;99.90;;;;;;5073896;28;20081;-64
2022/09/15 09:56:10;;;;;;;1.45;0.55;;;17.70;99.90;;;;;;5072367;28;20170;-65
2022/09/15 09:58:36;;;;;;;2.30;0.57;;;17.60;99.90;;;;;;5073082;28;20505;-65
2022/09/15 10:01:10;;;;;;;2.22;0.68;;;17.50;99.90;;;;;;5073442;28;20134;-64
2022/09/15 10:03:37;;;;;;;1.77;0.70;;;17.50;99.90;;;;;;5073354;28;20167;-64
2022/09/15 10:06:15;;;;;;;3.80;0.70;;;17.40;99.90;;;;;;5074477;28;20095;-64
2022/09/15 10:09:04;;;;;;;3.72;0.90;;;17.40;99.90;;;;;;5074032;28;20044;-64
2022/09/15 10:11:43;;;;;;;1.40;0.60;;;17.50;99.90;;;;;;5073724;28;20480;-64
2022/09/15 10:14:30;;;;;;;2.08;0.80;;;17.60;99.90;;;;;;5072243;28;20056;-64
2022/09/15 10:17:06;;;;;;;2.78;0.80;;;17.60;99.90;;;;;;5072898;28;20443;-66
2022/09/15 10:19:43;;;;;;;2.47;0.57;;;17.60;99.90;;;;;;5072924;28;20051;-65
2022/09/15 10:22:19;;;;;;;3.28;0.70;;;17.50;99.90;;;;;;5073177;28;20059;-65
2022/09/15 10:24:45;;;;;;;2.97;0.82;;;17.50;99.90;;;;;;5073174;28;20044;-65
2022/09/15 10:27:25;;;;;;;5.55;1.00;;;17.50;99.90;;;;;;5073314;28;20493;-65
2022/09/15 10:29:51;;;;;;;1.38;0.40;;;17.50;99.90;;;;;;5073742;28;20048;-65
2022/09/15 10:32:30;;;;;;;2.75;0.68;;;17.60;99.90;;;;;;5073088;28;20505;-65
2022/09/15 10:35:13;;;;;;;2.47;0.65;;;17.60;99.90;;;;;;5073577;28;20037;-65
2022/09/15 10:37:49;;;;;;;3.80;0.75;;;17.60;99.90;;;;;;5073205;28;20409;-65
2022/09/15 10:40:58;;;;;;;2.45;1.23;;;17.20;99.90;;;;;;5072824;28;20087;-66
2022/09/15 10:43:39;;;;;;;3.17;0.60;;;16.70;99.90;;;;;;5056821;28;20523;-66
2022/09/15 10:46:30;;;;;;;2.03;0.80;;;16.40;99.90;;;;;;5072771;28;20408;-65
2022/09/15 10:49:20;;;;;;;3.60;0.60;;;16.20;99.90;;;;;;5073500;28;20128;-66
2022/09/15 10:52:08;;;;;;;2.30;0.50;;;16.10;99.90;;;;;;5073168;28;20063;-65
2022/09/15 10:54:37;;;;;;;2.08;0.70;;;16.20;99.90;;;;;;5066905;28;20487;-66
2022/09/15 10:57:17;;;;;;;2.08;0.57;;;16.50;99.90;;;;;;5072802;28;20040;-66
2022/09/15 11:00:08;;;;;;;2.63;0.52;;;16.70;99.90;;;;;;5072747;28;20523;-65
2022/09/15 11:03:18;;;;;;;1.58;0.50;;;16.80;99.90;;;;;;5072842;28;20040;-65
2022/09/15 11:06:21;;;;;;;1.13;0.43;;;17.00;99.90;;;;;;5073883;28;20056;-65
2022/09/15 11:09:13;;;;;;;1.75;0.45;;;17.10;99.90;;;;;;5073169;28;20444;-66
2022/09/15 11:11:57;;;;;;;1.80;0.52;;;16.80;99.90;;;;;;5065796;28;20060;-65
2022/09/15 11:14:38;;;;;;;1.98;0.50;;;16.60;99.90;;;;;;5072657;28;20135;-65
2022/09/15 11:17:19;;;;;;;1.42;0.57;;;16.40;99.90;;;;;;5072387;28;20511;-65
2022/09/15 11:20:04;;;;;;;2.28;0.65;;;16.30;99.90;;;;;;5072657;28;20048;-66
2022/09/15 11:22:50;;;;;;;1.58;0.60;;;16.20;99.90;;;;;;5073369;28;20045;-66
2022/09/15 11:25:25;;;;;;;2.13;0.57;;;16.20;99.90;;;;;;5071396;28;20044;-66
2022/09/15 11:28:16;;;;;;;2.75;0.80;;;16.20;99.90;;;;;;5073366;28;20050;-66
2022/09/15 11:31:15;;;;;;;1.70;0.80;;;16.20;99.90;;;;;;5076095;28;20409;-66
2022/09/15 11:33:50;;;;;;;1.88;0.63;;;16.30;99.90;;;;;;5069148;28;20063;-65
2022/09/15 11:36:42;;;;;;;2.38;0.60;;;16.30;99.90;;;;;;5076060;28;20123;-65
2022/09/15 11:39:30;;;;;;;3.50;0.60;;;16.40;99.90;;;;;;5075970;28;20048;-66
2022/09/15 11:42:11;;;;;;;2.55;0.50;;;16.40;99.90;;;;;;5075810;28;20053;-65
2022/09/15 11:44:41;;;;;;;2.35;0.70;;;16.50;99.90;;;;;;5076500;28;20053;-66
2022/09/15 11:47:23;;;;;;;1.20;0.50;;;16.70;99.90;;;;;;5076114;28;20095;-65
2022/09/15 11:50:09;;;;;;;1.45;0.50;;;16.90;99.90;;;;;;5075873;28;20044;-65
2022/09/15 11:53:00;;;;;;;2.72;0.65;;;17.00;99.90;;;;;;5068240;28;20139;-65
2022/09/15 11:55:58;;;;;;;1.70;0.50;;;17.20;99.90;;;;;;5075742;28;20077;-65
2022/09/15 11:58:31;;;;;;;1.38;0.50;;;17.30;99.90;;;;;;5066973;28;20136;-65
2022/09/15 12:01:12;;;;;;;2.55;0.70;;;17.20;99.90;;;;;;5075658;28;20075;-65
2022/09/15 12:03:55;;;;;;;3.00;0.82;;;17.20;99.90;;;;;;5076289;28;20048;-65
2022/09/15 12:06:41;;;;;;;1.60;0.50;;;17.10;99.90;;;;;;5073889;28;20492;-65
2022/09/15 12:09:12;;;;;;;2.05;0.82;;;17.00;99.90;;;;;;5075151;28;20098;-65
2022/09/15 12:11:46;;;;;;;1.42;0.60;;;17.00;99.90;;;;;;5076282;28;20486;-65
2022/09/15 12:14:19;;;;;;;2.67;0.60;;;16.80;99.90;;;;;;5075293;28;20048;-65
2022/09/15 12:16:45;;;;;;;5.25;0.80;;;16.80;99.90;;;;;;5075231;28;20041;-65
2022/09/15 12:19:35;;;;;;;2.63;0.70;;;17.00;99.90;;;;;;5074195;28;20045;-65
2022/09/15 12:22:46;;;;;;;1.98;1.00;;;17.20;99.90;;;;;;5075544;28;20397;-65
2022/09/15 12:25:23;;;;;;;1.17;0.50;;;17.50;99.90;;;;;;5073249;28;20059;-64
2022/09/15 12:28:23;;;;;;;2.90;0.73;;;17.60;99.90;;;;;;5075149;28;20045;-65
2022/09/15 12:31:13;;;;;;;2.40;0.80;;;17.60;99.90;;;;;;5073943;28;20509;-65
2022/09/15 12:33:42;;;;;;;1.02;0.50;;;17.50;99.90;;;;;;5054657;28;20057;-64
2022/09/15 12:36:37;;;;;;;1.35;0.60;;;17.50;99.90;;;;;;5074911;28;20505;-65
2022/09/15 12:39:18;;;;;;;1.45;0.50;;;17.70;99.90;;;;;;5074034;28;20106;-65
2022/09/15 12:42:02;;;;;;;1.52;0.60;;;17.90;99.90;;;;;;5075334;28;20144;-65
2022/09/15 12:44:51;;;;;;;1.40;0.60;;;17.90;99.90;;;;;;5074781;28;20044;-65
2022/09/15 12:47:19;;;;;;;1.55;0.60;;;17.90;99.90;;;;;;5075104;28;20041;-65
2022/09/15 12:49:47;;;;;;;1.48;0.40;;;18.00;99.90;;;;;;5075179;28;20087;-65
2022/09/15 12:52:14;;;;;;;1.02;0.40;;;18.00;99.90;;;;;;5075112;28;20044;-65
2022/09/15 12:54:42;;;;;;;1.38;0.47;;;18.00;99.90;;;;;;5073160;28;20055;-65
2022/09/15 12:57:35;;;;;;;2.05;0.50;;;18.10;99.90;;;;;;5074475;28;20045;-65
2022/09/15 13:00:31;;;;;;;1.83;0.60;;;18.20;99.90;;;;;;5074671;28;20044;-64
2022/09/15 13:02:57;;;;;;;1.30;0.43;;;18.30;99.90;;;;;;5074383;28;20421;-64
2022/09/15 13:05:41;;;;;;;0.82;0.40;;;18.20;99.90;;;;;;5074285;28;20048;-64
2022/09/15 13:08:36;;;;;;;2.03;0.60;;;18.10;99.90;;;;;;5056930;28;20078;-64
2022/09/15 13:11:09;;;;;;;1.45;0.40;;;18.00;99.90;;;;;;5074442;28;20051;-64
2022/09/15 13:13:42;;;;;;;2.90;0.60;;;17.80;99.90;;;;;;5074261;28;20536;-64
2022/09/15 13:16:29;;;;;;;1.02;0.50;;;17.60;99.90;;;;;;5074831;28;20047;-64
2022/09/15 13:19:22;;;;;;;0.90;0.43;;;17.60;99.90;;;;;;5072862;28;20055;-64